createdAt,value
2022-09-02T00:02:26.289Z,-20412.31
2022-09-02T00:04:53.964Z,-20413.09
2022-09-02T00:07:21.629Z,-20411.41
2022-09-02T00:09:49.276Z,-20407.75
2022-09-02T00:12:16.951Z,-20406.84
2022-09-02T00:14:44.589Z,-20404.41
2022-09-02T00:17:13.689Z,-20403.03
2022-09-02T00:19:41.499Z,-20400.28
2022-09-02T00:22:09.403Z,-20400.59
2022-09-02T00:24:37.258Z,-20403.50
2022-09-02T00:27:05.317Z,-20400.28
2022-09-02T00:29:33.016Z,-20399.38
2022-09-02T00:32:00.958Z,-20401.66
2022-09-02T00:34:30.106Z,-20401.34
2022-09-02T00:36:57.817Z,-20401.81
2022-09-02T00:39:26.103Z,-20396.94
2022-09-02T00:41:54.090Z,-20398.31
2022-09-02T00:44:22.472Z,-20401.06
2022-09-02T00:46:50.110Z,-20401.06
2022-09-02T00:49:24.223Z,-20399.06
2022-09-02T00:51:57.691Z,-20397.38
2022-09-02T00:54:29.073Z,-20392.97
2022-09-02T00:56:57.333Z,-20394.03
2022-09-02T00:59:31.362Z,-20394.34
2022-09-02T01:01:59.118Z,-20392.81
2022-09-02T01:04:27.533Z,-20391.91
2022-09-02T01:06:56.858Z,-20389.47
2022-09-02T01:09:24.517Z,-20389.31
2022-09-02T01:11:53.504Z,-20396.16
2022-09-02T01:14:21.223Z,-20400.44
2022-09-02T01:16:52.490Z,-20404.25
2022-09-02T01:19:24.969Z,-20397.38
2022-09-02T01:21:55.169Z,-20391.91
2022-09-02T01:24:26.549Z,-20387.63
2022-09-02T01:26:56.576Z,-20386.41
2022-09-02T01:29:25.452Z,-20383.06
2022-09-02T01:31:53.661Z,-20380.03
2022-09-02T01:34:22.806Z,-20378.19
2022-09-02T01:36:50.460Z,-20376.66
2022-09-02T01:39:19.473Z,-20373.31
2022-09-02T01:41:47.306Z,-20371.19
2022-09-02T01:44:16.098Z,-20373.94
2022-09-02T01:46:43.808Z,-20374.22
2022-09-02T01:49:11.510Z,-20370.56
2022-09-02T01:51:39.139Z,-20370.72
2022-09-02T01:54:07.295Z,-20370.41
2022-09-02T01:56:36.327Z,-20368.44
2022-09-02T01:59:04.586Z,-20368.13
2022-09-02T02:01:32.397Z,-20370.13
2022-09-02T02:04:01.018Z,-20371.94
2022-09-02T02:06:29.052Z,-20370.56
2022-09-02T02:08:56.700Z,-20372.09
2022-09-02T02:11:26.239Z,-20370.72
2022-09-02T02:13:55.279Z,-20371.94
2022-09-02T02:16:23.061Z,-20372.69
2022-09-02T02:18:50.775Z,-20374.53
2022-09-02T02:21:18.456Z,-20371.19
2022-09-02T02:23:48.539Z,-20367.22
2022-09-02T02:26:16.446Z,-20371.78
2022-09-02T02:28:44.480Z,-20370.56
2022-09-02T02:31:13.846Z,-20365.22
2022-09-02T02:33:41.702Z,-20363.56
2022-09-02T02:36:10.210Z,-20359.88
2022-09-02T02:38:40.000Z,-20361.88
2022-09-02T02:41:08.370Z,-20358.22
2022-09-02T02:43:36.992Z,-20358.66
2022-09-02T02:46:05.494Z,-20360.03
2022-09-02T02:48:35.462Z,-20354.56
2022-09-02T02:51:03.793Z,-20353.47
2022-09-02T02:53:32.200Z,-20357.00
2022-09-02T02:56:00.481Z,-20356.09
2022-09-02T02:58:28.227Z,-20354.72
2022-09-02T03:00:56.356Z,-20352.13
2022-09-02T03:03:24.354Z,-20346.94
2022-09-02T03:05:53.793Z,-20345.56
2022-09-02T03:08:22.319Z,-20348.31
2022-09-02T03:10:54.296Z,-20350.88
2022-09-02T03:13:22.945Z,-20348.44
2022-09-02T03:15:51.639Z,-20343.72
2022-09-02T03:18:20.146Z,-20345.25
2022-09-02T03:20:47.859Z,-20342.19
2022-09-02T03:23:17.928Z,-20339.75
2022-09-02T03:25:46.654Z,-20336.72
2022-09-02T03:28:15.362Z,-20334.56
2022-09-02T03:30:43.622Z,-20333.81
2022-09-02T03:33:11.294Z,-20331.53
2022-09-02T03:35:41.014Z,-20332.13
2022-09-02T03:38:09.762Z,-20334.13
2022-09-02T03:40:40.127Z,-20330.16
2022-09-02T03:43:07.893Z,-20332.13
2022-09-02T03:45:35.973Z,-20332.28
2022-09-02T03:48:04.495Z,-20334.41
2022-09-02T03:50:34.166Z,-20332.44
2022-09-02T03:53:02.175Z,-20331.81
2022-09-02T03:55:30.647Z,-20331.53
2022-09-02T03:58:00.310Z,-20330.00
2022-09-02T04:00:30.409Z,-20328.47
2022-09-02T04:02:58.324Z,-20327.84
2022-09-02T04:05:26.350Z,-20325.25
2022-09-02T04:07:53.845Z,-20321.44
2022-09-02T04:10:22.118Z,-20319.91
2022-09-02T04:12:50.636Z,-20317.78
2022-09-02T04:15:21.434Z,-20319.00
2022-09-02T04:17:49.266Z,-20315.47
2022-09-02T04:20:17.985Z,-20315.94
2022-09-02T04:22:45.713Z,-20312.59
2022-09-02T04:25:13.725Z,-20317.16
2022-09-02T04:27:41.644Z,-20312.59
2022-09-02T04:30:10.822Z,-20315.34
2022-09-02T04:32:40.903Z,-20313.34
2022-09-02T04:35:09.577Z,-20313.19
2022-09-02T04:37:37.349Z,-20313.34
2022-09-02T04:40:05.850Z,-20314.25
2022-09-02T04:42:34.281Z,-20316.09
2022-09-02T04:45:02.001Z,-20313.81
2022-09-02T04:47:29.597Z,-20314.41
2022-09-02T04:49:58.692Z,-20308.75
2022-09-02T04:52:27.059Z,-20307.69
2022-09-02T04:54:54.736Z,-20306.16
2022-09-02T04:57:22.577Z,-20306.78
2022-09-02T04:59:50.218Z,-20309.84
2022-09-02T05:02:20.265Z,-20311.06
2022-09-02T05:04:48.057Z,-20309.38
2022-09-02T05:07:17.124Z,-20311.97
2022-09-02T05:09:45.027Z,-20313.50
2022-09-02T05:12:13.198Z,-20316.84
2022-09-02T05:14:40.983Z,-20319.00
2022-09-02T05:17:08.674Z,-20321.59
2022-09-02T05:19:36.354Z,-20323.13
2022-09-02T05:22:04.552Z,-20323.13
2022-09-02T05:24:33.632Z,-20325.09
2022-09-02T05:27:01.302Z,-20329.84
2022-09-02T05:29:29.058Z,-20341.59
2022-09-02T05:31:56.661Z,-20347.84
2022-09-02T05:34:24.814Z,-20351.66
2022-09-02T05:36:52.600Z,-20358.97
2022-09-02T05:39:20.370Z,-20367.06
2022-09-02T05:41:49.465Z,-20374.84
2022-09-02T05:44:17.104Z,-20382.31
2022-09-02T05:46:48.696Z,-20390.69
2022-09-02T05:49:18.246Z,-20394.94
2022-09-02T05:51:48.802Z,-20399.97
2022-09-02T05:54:19.157Z,-20405.94
2022-09-02T05:56:53.706Z,-20413.25
2022-09-02T05:59:21.978Z,-20418.25
2022-09-02T06:01:50.078Z,-20413.69
2022-09-02T06:04:18.201Z,-20421.47
2022-09-02T06:06:45.878Z,-20427.41
2022-09-02T06:09:16.685Z,-20434.72
2022-09-02T06:11:49.215Z,-20445.50
2022-09-02T06:14:20.721Z,-20447.03
2022-09-02T06:16:50.347Z,-20451.00
2022-09-02T06:19:20.405Z,-20463.00
2022-09-02T06:21:48.971Z,-20470.59
2022-09-02T06:24:16.794Z,-20465.91
2022-09-02T06:26:45.433Z,-20480.34
2022-09-02T06:29:13.679Z,-20494.63
2022-09-02T06:31:44.319Z,-20501.47
2022-09-02T06:34:14.651Z,-20515.28
2022-09-02T06:36:43.270Z,-20512.25
2022-09-02T06:39:13.359Z,-20536.69
2022-09-02T06:41:42.577Z,-20540.78
2022-09-02T06:44:12.318Z,-20557.19
2022-09-02T06:46:47.307Z,-20577.03
2022-09-02T06:49:16.238Z,-20579.47
2022-09-02T06:51:45.514Z,-20603.56
2022-09-02T06:54:16.374Z,-20614.94
2022-09-02T06:56:48.731Z,-20615.22
2022-09-02T06:59:17.184Z,-20623.84
2022-09-02T07:01:47.363Z,-20635.19
2022-09-02T07:04:33.331Z,-20632.19
2022-09-02T07:07:01.092Z,-20630.66
2022-09-02T07:09:31.138Z,-20640.97
2022-09-02T07:12:04.276Z,-20651.25
2022-09-02T07:14:36.915Z,-20652.31
2022-09-02T07:17:06.875Z,-20679.81
2022-09-02T07:19:34.823Z,-20650.78
2022-09-02T07:22:04.002Z,-20638.22
2022-09-02T07:24:31.718Z,-20655.47
2022-09-02T07:26:59.434Z,-20656.09
2022-09-02T07:29:27.457Z,-20666.06
2022-09-02T07:31:55.166Z,-20683.75
2022-09-02T07:34:24.275Z,-20697.34
2022-09-02T07:36:52.561Z,-20693.25
2022-09-02T07:39:20.590Z,-20687.06
2022-09-02T07:41:50.271Z,-20680.41
2022-09-02T07:44:18.947Z,-20683.28
2022-09-02T07:46:46.939Z,-20691.59
2022-09-02T07:49:15.767Z,-20692.97
2022-09-02T07:51:49.440Z,-20688.44
2022-09-02T07:54:18.809Z,-20693.25
2022-09-02T07:56:46.604Z,-20684.81
2022-09-02T07:59:14.247Z,-20668.63
2022-09-02T08:04:18.643Z,-20683.91
2022-09-02T08:06:47.914Z,-20695.38
2022-09-02T08:09:15.701Z,-20721.66
2022-09-02T08:11:46.458Z,-20702.47
2022-09-02T08:14:18.047Z,-20673.91
2022-09-02T08:16:47.072Z,-20682.69
2022-09-02T08:19:15.719Z,-20699.75
2022-09-02T08:21:43.384Z,-20697.50
2022-09-02T08:24:12.505Z,-20690.53
2022-09-02T08:26:40.174Z,-20679.50
2022-09-02T08:29:09.603Z,-20677.53
2022-09-02T08:31:38.907Z,-20699.00
2022-09-02T08:34:07.029Z,-20715.91
2022-09-02T08:36:34.946Z,-20712.44
2022-09-02T08:39:04.601Z,-20712.00
2022-09-02T08:41:41.249Z,-20727.09
2022-09-02T08:44:11.537Z,-20726.78
2022-09-02T08:46:39.499Z,-20716.81
2022-09-02T08:49:11.781Z,-20711.69
2022-09-02T08:51:51.024Z,-20707.75
2022-09-02T08:54:27.293Z,-20701.41
2022-09-02T08:56:58.926Z,-20712.59
2022-09-02T08:59:29.331Z,-20704.28
2022-09-02T09:02:13.600Z,-20708.38
2022-09-02T09:05:12.860Z,-20731.31
2022-09-02T09:07:54.607Z,-20712.88
2022-09-02T09:10:29.729Z,-20735.53
2022-09-02T09:13:20.987Z,-20730.41
2022-09-02T09:15:55.229Z,-20729.34
2022-09-02T09:18:32.167Z,-20731.00
2022-09-02T09:20:59.932Z,-20748.94
2022-09-02T09:23:34.233Z,-20761.47
2022-09-02T09:26:08.429Z,-20748.50
2022-09-02T09:28:43.514Z,-20770.06
2022-09-02T09:31:15.062Z,-20773.50
2022-09-02T09:33:56.471Z,-20763.56
2022-09-02T09:36:45.026Z,-20785.56
2022-09-02T09:39:20.067Z,-20787.66
2022-09-02T09:41:49.611Z,-20759.81
2022-09-02T09:44:43.229Z,-20752.72
2022-09-02T09:47:17.932Z,-20776.69
2022-09-02T09:49:46.983Z,-20771.25
2022-09-02T09:52:24.497Z,-20771.09
2022-09-02T09:55:12.357Z,-20747.28
2022-09-02T09:57:44.682Z,-20748.19
2022-09-02T10:00:26.732Z,-20750.59
2022-09-02T10:02:57.881Z,-20758.44
2022-09-02T10:05:33.050Z,-20761.47
2022-09-02T10:08:03.259Z,-20776.81
2022-09-02T10:10:33.430Z,-20791.56
2022-09-02T10:16:12.207Z,-20769.91
2022-09-02T10:18:44.849Z,-20790.97
2022-09-02T10:21:27.965Z,-20790.84
2022-09-02T10:24:05.700Z,-20796.72
2022-09-02T10:27:23.754Z,-20795.66
2022-09-02T10:29:58.940Z,-20779.53
2022-09-02T10:32:43.236Z,-20800.91
2022-09-02T10:35:19.486Z,-20789.31
2022-09-02T10:38:01.846Z,-20800.31
2022-09-02T10:40:37.464Z,-20787.38
2022-09-02T10:43:07.570Z,-20784.34
2022-09-02T10:46:01.257Z,-20758.75
2022-09-02T10:48:40.775Z,-20757.84
2022-09-02T10:51:17.486Z,-20785.25
2022-09-02T10:54:17.642Z,-20779.69
2022-09-02T10:56:50.868Z,-20787.66
2022-09-02T10:59:23.001Z,-20778.34
2022-09-02T11:01:57.101Z,-20794.91
2022-09-02T11:04:38.877Z,-20803.63
2022-09-02T11:07:10.768Z,-20793.53
2022-09-02T11:09:42.411Z,-20802.56
2022-09-02T11:12:16.708Z,-20787.22
2022-09-02T11:14:56.253Z,-20786.75
2022-09-02T11:17:30.788Z,-20809.63
2022-09-02T11:20:09.488Z,-20812.94
2022-09-02T11:22:46.065Z,-20800.00
2022-09-02T11:25:18.675Z,-20809.03
2022-09-02T11:27:50.348Z,-20790.97
2022-09-02T11:30:21.509Z,-20824.97
2022-09-02T11:32:56.566Z,-20823.94
2022-09-02T11:35:27.942Z,-20815.06
2022-09-02T11:38:02.261Z,-20798.50
2022-09-02T11:40:39.096Z,-20825.28
2022-09-02T11:43:28.983Z,-20826.19
2022-09-02T11:46:28.319Z,-20812.22
2022-09-02T11:49:11.419Z,-20822.56
2022-09-02T11:52:04.389Z,-20807.22
2022-09-02T11:54:37.258Z,-20788.72
2022-09-02T11:57:07.298Z,-20784.66
2022-09-02T12:00:10.703Z,-20804.22
2022-09-02T12:02:46.134Z,-20816.88
2022-09-02T12:06:06.097Z,-20814.91
2022-09-02T12:09:09.413Z,-20795.50
2022-09-02T12:11:50.815Z,-20804.22
2022-09-02T12:15:07.448Z,-20808.75
2022-09-02T12:17:40.725Z,-20803.19
2022-09-02T12:20:11.148Z,-20819.13
2022-09-02T12:22:39.711Z,-20823.47
2022-09-02T12:25:22.069Z,-20816.41
2022-09-02T12:28:10.459Z,-20808.75
2022-09-02T12:30:56.448Z,-20795.81
2022-09-02T12:33:30.341Z,-20787.06
2022-09-02T12:35:59.069Z,-20784.50
2022-09-02T12:38:31.395Z,-20795.19
2022-09-02T12:41:13.721Z,-20792.78
2022-09-02T12:43:48.569Z,-20814.31
2022-09-02T12:46:22.856Z,-20825.59
2022-09-02T12:48:56.173Z,-20826.63
2022-09-02T12:51:38.594Z,-20818.53
2022-09-02T12:54:07.265Z,-20830.09
2022-09-02T12:56:34.843Z,-20817.78
2022-09-02T12:59:03.778Z,-20826.19
2022-09-02T13:01:38.553Z,-20823.94
2022-09-02T13:04:28.009Z,-20827.38
2022-09-02T13:07:21.773Z,-20826.78
2022-09-02T13:09:56.614Z,-20820.03
2022-09-02T13:12:39.027Z,-20816.72
2022-09-02T13:15:23.046Z,-20832.06
2022-09-02T13:18:03.742Z,-20815.38
2022-09-02T13:20:44.926Z,-20796.41
2022-09-02T13:23:31.203Z,-20813.25
2022-09-02T13:26:23.101Z,-20830.69
2022-09-02T13:29:18.086Z,-20826.50
2022-09-02T13:32:01.405Z,-20834.47
2022-09-02T13:34:29.490Z,-20843.63
2022-09-02T13:36:57.188Z,-20814.31
2022-09-02T13:39:26.390Z,-20841.22
2022-09-02T13:41:54.462Z,-20831.91
2022-09-02T13:44:23.069Z,-20832.97
2022-09-02T13:46:51.979Z,-20823.19
2022-09-02T13:49:27.704Z,-20837.00
2022-09-02T13:51:56.706Z,-20817.16
2022-09-02T13:54:34.467Z,-20821.38
2022-09-02T13:57:02.939Z,-20815.81
2022-09-02T13:59:38.288Z,-20817.47
2022-09-02T14:02:23.810Z,-20815.38
2022-09-02T14:04:55.861Z,-20834.47
2022-09-02T14:07:27.251Z,-20827.09
2022-09-02T14:09:58.782Z,-20825.72
2022-09-02T14:12:26.942Z,-20815.50
2022-09-02T14:14:54.818Z,-20828.44
2022-09-02T14:17:23.573Z,-20820.94
2022-09-02T14:19:51.383Z,-20819.28
2022-09-02T14:22:27.717Z,-20822.28
2022-09-02T14:24:55.457Z,-20806.63
2022-09-02T14:27:24.094Z,-20808.13
2022-09-02T14:29:55.576Z,-20818.53
2022-09-02T14:32:24.062Z,-20816.13
2022-09-02T14:35:06.415Z,-20830.69
2022-09-02T14:37:35.583Z,-20838.66
2022-09-02T14:40:06.963Z,-20836.25
2022-09-02T14:42:35.196Z,-20805.88
2022-09-02T14:45:05.638Z,-20815.38
2022-09-02T14:47:37.966Z,-20795.94
2022-09-02T14:50:05.885Z,-20806.47
2022-09-02T14:52:36.507Z,-20790.22
2022-09-02T14:55:06.261Z,-20799.41
2022-09-02T14:57:35.595Z,-20803.31
2022-09-02T15:00:05.686Z,-20793.09
2022-09-02T15:02:34.569Z,-20795.81
2022-09-02T15:05:03.196Z,-20788.13
2022-09-02T15:07:30.737Z,-20811.31
2022-09-02T15:09:59.639Z,-20803.63
2022-09-02T15:12:29.557Z,-20798.97
2022-09-02T15:14:57.537Z,-20799.41
2022-09-02T15:17:25.335Z,-20797.16
2022-09-02T15:19:53.114Z,-20790.53
2022-09-02T15:22:21.079Z,-20794.44
2022-09-02T15:24:49.180Z,-20792.34
2022-09-02T15:27:21.600Z,-20784.66
2022-09-02T15:29:49.466Z,-20783.16
2022-09-02T15:32:17.208Z,-20780.44
2022-09-02T15:34:44.791Z,-20788.56
2022-09-02T15:37:13.185Z,-20783.91
2022-09-02T15:39:41.216Z,-20772.91
2022-09-02T15:42:08.854Z,-20768.09
2022-09-02T15:44:37.722Z,-20766.28
2022-09-02T15:47:05.249Z,-20764.19
2022-09-02T15:49:32.756Z,-20759.19
2022-09-02T15:52:00.473Z,-20769.59
2022-09-02T15:54:27.956Z,-20765.06
2022-09-02T15:56:56.451Z,-20763.28
2022-09-02T15:59:24.014Z,-20768.09
2022-09-02T16:01:55.110Z,-20761.47
2022-09-02T16:04:23.331Z,-20760.84
2022-09-02T16:06:52.221Z,-20741.41
2022-09-02T16:09:20.373Z,-20753.00
2022-09-02T16:11:49.163Z,-20756.63
2022-09-02T16:14:21.002Z,-20757.53
2022-09-02T16:16:49.767Z,-20747.13
2022-09-02T16:19:21.411Z,-20753.16
2022-09-02T16:21:48.964Z,-20742.78
2022-09-02T16:24:18.045Z,-20738.53
2022-09-02T16:26:45.544Z,-20741.56
2022-09-02T16:29:14.627Z,-20743.97
2022-09-02T16:31:43.166Z,-20737.63
2022-09-02T16:34:11.753Z,-20741.56
2022-09-02T16:36:41.534Z,-20732.66
2022-09-02T16:39:10.613Z,-20727.09
2022-09-02T16:41:38.665Z,-20723.91
2022-09-02T16:44:08.098Z,-20723.16
2022-09-02T16:46:36.621Z,-20718.94
2022-09-02T16:49:04.629Z,-20713.78
2022-09-02T16:51:32.333Z,-20713.19
2022-09-02T16:54:02.202Z,-20715.75
2022-09-02T16:56:30.540Z,-20711.38
2022-09-02T16:59:01.119Z,-20714.25
2022-09-02T17:01:32.301Z,-20710.19
2022-09-02T17:04:00.348Z,-20706.84
2022-09-02T17:06:28.131Z,-20701.13
2022-09-02T17:08:55.698Z,-20700.66
2022-09-02T17:11:25.407Z,-20700.81
2022-09-02T17:13:53.486Z,-20699.59
2022-09-02T17:16:21.963Z,-20702.63
2022-09-02T17:18:49.515Z,-20702.03
2022-09-02T17:21:27.492Z,-20703.09
2022-09-02T17:23:55.490Z,-20697.78
2022-09-02T17:26:25.883Z,-20694.63
2022-09-02T17:28:54.774Z,-20698.09
2022-09-02T17:31:24.003Z,-20689.03
2022-09-02T17:33:51.801Z,-20681.34
2022-09-02T17:36:19.906Z,-20685.72
2022-09-02T17:38:47.378Z,-20684.50
2022-09-02T17:41:33.082Z,-20678.31
2022-09-02T17:44:01.875Z,-20678.59
2022-09-02T17:46:29.357Z,-20680.56
2022-09-02T17:49:15.915Z,-20676.34
2022-09-02T17:51:44.662Z,-20668.34
2022-09-02T17:54:13.251Z,-20666.81
2022-09-02T17:56:49.700Z,-20663.66
2022-09-02T17:59:25.338Z,-20663.78
2022-09-02T18:01:58.097Z,-20661.53
2022-09-02T18:04:32.048Z,-20664.84
2022-09-02T18:07:05.101Z,-20656.84
2022-09-02T18:09:32.815Z,-20663.94
2022-09-02T18:12:02.925Z,-20657.59
2022-09-02T18:14:36.918Z,-20656.38
2022-09-02T18:17:09.407Z,-20652.44
2022-09-02T18:19:45.945Z,-20652.00
2022-09-02T18:22:23.102Z,-20649.56
2022-09-02T18:25:00.090Z,-20642.16
2022-09-02T18:27:37.183Z,-20634.59
2022-09-02T18:30:07.882Z,-20630.38
2022-09-02T18:32:45.942Z,-20620.97
2022-09-02T18:35:21.415Z,-20611.28
2022-09-02T18:37:53.656Z,-20607.50
2022-09-02T18:40:28.491Z,-20597.06
2022-09-02T18:43:01.175Z,-20595.69
2022-09-02T18:45:33.183Z,-20592.81
2022-09-02T18:48:02.800Z,-20593.72
2022-09-02T18:50:49.293Z,-20587.50
2022-09-02T18:53:21.549Z,-20584.00
2022-09-02T18:55:49.684Z,-20580.38
2022-09-02T18:58:22.524Z,-20576.75
2022-09-02T19:00:55.380Z,-20578.25
2022-09-02T19:03:23.476Z,-20573.41
2022-09-02T19:05:51.251Z,-20565.53
2022-09-02T19:08:39.734Z,-20555.34
2022-09-02T19:11:09.410Z,-20549.13
2022-09-02T19:13:44.126Z,-20543.69
2022-09-02T19:16:13.384Z,-20544.44
2022-09-02T19:18:41.069Z,-20534.72
2022-09-02T19:21:10.434Z,-20533.66
2022-09-02T19:23:38.473Z,-20531.84
2022-09-02T19:26:06.722Z,-20526.53
2022-09-02T19:28:37.584Z,-20526.84
2022-09-02T19:31:05.526Z,-20526.69
2022-09-02T19:33:37.518Z,-20526.38
2022-09-02T19:36:05.498Z,-20526.69
2022-09-02T19:38:33.065Z,-20526.06
2022-09-02T19:41:03.063Z,-20520.91
2022-09-02T19:43:32.667Z,-20516.03
2022-09-02T19:46:01.267Z,-20511.50
2022-09-02T19:48:30.653Z,-20506.94
2022-09-02T19:51:00.161Z,-20504.50
2022-09-02T19:53:30.185Z,-20501.91
2022-09-02T19:55:58.920Z,-20504.19
2022-09-02T19:58:27.690Z,-20506.78
2022-09-02T20:00:56.980Z,-20503.75
2022-09-02T20:03:24.791Z,-20500.25
2022-09-02T20:05:53.526Z,-20500.25
2022-09-02T20:08:31.146Z,-20505.13
2022-09-02T20:11:01.295Z,-20508.16
2022-09-02T20:13:30.841Z,-20506.31
2022-09-02T20:15:58.619Z,-20499.03
2022-09-02T20:18:29.539Z,-20497.66
2022-09-02T20:20:59.913Z,-20496.16
2022-09-02T20:23:33.315Z,-20492.34
2022-09-02T20:26:12.252Z,-20489.31
2022-09-02T20:28:59.343Z,-20493.72
2022-09-02T20:31:42.360Z,-20494.16
2022-09-02T20:34:28.096Z,-20492.03
2022-09-02T20:37:05.711Z,-20491.13
2022-09-02T20:39:54.247Z,-20488.84
2022-09-02T20:42:48.639Z,-20481.41
2022-09-02T20:45:25.121Z,-20477.75
2022-09-02T20:48:02.144Z,-20476.09
2022-09-02T20:50:38.489Z,-20473.97
2022-09-02T20:53:13.810Z,-20473.34
2022-09-02T20:55:47.650Z,-20474.72
2022-09-02T20:58:29.239Z,-20472.28
2022-09-02T21:01:02.928Z,-20468.94
2022-09-02T21:03:40.926Z,-20469.38
2022-09-02T21:06:10.694Z,-20465.75
2022-09-02T21:08:42.055Z,-20465.59
2022-09-02T21:11:14.649Z,-20461.50
2022-09-02T21:13:47.100Z,-20456.78
2022-09-02T21:16:20.062Z,-20456.16
2022-09-02T21:18:51.135Z,-20455.25
2022-09-02T21:21:21.912Z,-20455.56
2022-09-02T21:23:51.950Z,-20457.53
2022-09-02T21:26:23.505Z,-20456.47
2022-09-02T21:28:55.475Z,-20454.34
2022-09-02T21:31:25.909Z,-20455.84
2022-09-02T21:33:55.586Z,-20450.22
2022-09-02T21:36:26.256Z,-20450.69
2022-09-02T21:38:55.658Z,-20449.78
2022-09-02T21:41:32.910Z,-20452.50
2022-09-02T21:44:06.194Z,-20452.50
2022-09-02T21:46:39.471Z,-20455.09
2022-09-02T21:49:14.610Z,-20451.28
2022-09-02T21:51:46.368Z,-20454.03
2022-09-02T21:54:27.390Z,-20454.78
2022-09-02T21:57:16.516Z,-20455.09
2022-09-02T21:59:50.501Z,-20461.94
2022-09-02T22:02:21.243Z,-20455.84
2022-09-02T22:04:56.225Z,-20452.50
2022-09-02T22:07:27.295Z,-20451.28
2022-09-02T22:10:03.131Z,-20449.78
2022-09-02T22:12:35.058Z,-20446.41
2022-09-02T22:15:07.697Z,-20445.66
2022-09-02T22:17:36.307Z,-20442.63
2022-09-02T22:20:07.441Z,-20442.00
2022-09-02T22:22:38.831Z,-20444.91
2022-09-02T22:25:08.172Z,-20444.28
2022-09-02T22:27:39.600Z,-20444.00
2022-09-02T22:30:09.005Z,-20447.34
2022-09-02T22:32:39.640Z,-20451.91
2022-09-02T22:35:10.798Z,-20449.47
2022-09-02T22:37:41.742Z,-20449.16
2022-09-02T22:40:11.302Z,-20448.25
2022-09-02T22:42:40.990Z,-20450.06
2022-09-02T22:45:27.923Z,-20454.19
2022-09-02T22:48:29.935Z,-20456.91
2022-09-02T22:51:19.243Z,-20458.13
2022-09-02T22:53:50.515Z,-20458.28
2022-09-02T22:56:20.027Z,-20457.97
2022-09-02T22:59:13.649Z,-20460.41
2022-09-02T23:01:44.767Z,-20467.41
2022-09-02T23:04:19.144Z,-20469.09
2022-09-02T23:06:46.597Z,-20469.09
2022-09-02T23:09:15.868Z,-20469.53
2022-09-02T23:11:49.221Z,-20470.59
2022-09-02T23:14:26.488Z,-20470.91
2022-09-02T23:17:03.656Z,-20467.41
2022-09-02T23:19:37.197Z,-20468.94
2022-09-02T23:22:10.015Z,-20471.06
2022-09-02T23:24:45.242Z,-20477.75
2022-09-02T23:27:17.757Z,-20478.38
2022-09-02T23:29:46.634Z,-20475.63
2022-09-02T23:32:32.967Z,-20475.03
2022-09-02T23:35:11.285Z,-20479.28
2022-09-02T23:37:46.689Z,-20482.31
2022-09-02T23:40:20.834Z,-20484.75
2022-09-02T23:42:48.649Z,-20489.63
2022-09-02T23:45:22.466Z,-20494.16
2022-09-02T23:47:59.535Z,-20499.94
2022-09-02T23:50:34.438Z,-20500.72
2022-09-02T23:53:06.633Z,-20499.94
2022-09-02T23:55:39.756Z,-20500.56
2022-09-02T23:58:15.953Z,-20501.63
